Time;durP1;ratioP1;P1;durP2;ratioP2;P2;SDS_P1;SDS_P2;PMS_P1;PMS_P2;Temp;Humidity;BMP_temperature;BMP_pressure;BME280_temperature;BME280_humidity;BME280_pressure;Samples;Min_cycle;Max_cycle;Signal;HPM_P1;HPM_P2
2024/04/10 00:01:10;;;;;;;12.07;3.40;;;;;;;11.90;65.14;100031.69;6187246;23;20385;-86
2024/04/10 00:03:36;;;;;;;8.88;2.60;;;;;;;11.91;65.24;100038.66;6164090;23;20032;-86
2024/04/10 00:06:04;;;;;;;9.23;2.58;;;;;;;11.91;65.05;100036.91;6210092;23;20056;-88
2024/04/10 00:08:31;;;;;;;9.38;2.63;;;;;;;11.93;65.08;100047.38;6189136;23;20028;-86
2024/04/10 00:10:57;;;;;;;11.77;3.00;;;;;;;11.91;65.00;100051.88;6214291;23;20464;-87
2024/04/10 00:13:23;;;;;;;12.15;3.25;;;;;;;11.90;65.09;100051.03;6239666;23;20059;-85
2024/04/10 00:16:03;;;;;;;11.85;3.05;;;;;;;11.87;64.00;100048.56;6189653;23;20075;-87
2024/04/10 00:18:30;;;;;;;11.65;2.95;;;;;;;11.90;64.72;100048.41;6214790;23;20021;-88
2024/04/10 00:20:56;;;;;;;10.82;2.80;;;;;;;11.89;65.05;100057.22;6240867;23;20464;-85
2024/04/10 00:23:22;;;;;;;11.52;2.85;;;;;;;11.91;65.24;100057.13;6189239;23;20024;-87
2024/04/10 00:25:59;;;;;;;11.90;2.70;;;;;;;11.90;64.99;100060.72;6239342;23;20075;-88
2024/04/10 00:28:27;;;;;;;14.63;3.20;;;;;;;11.96;65.45;100063.03;6189376;23;20043;-87
2024/04/10 00:30:52;;;;;;;12.32;2.85;;;;;;;11.97;65.25;100057.63;6213982;23;20027;-86
2024/04/10 00:33:19;;;;;;;8.68;3.60;;;;;;;11.96;65.18;100066.50;6240165;23;20091;-87
2024/04/10 00:35:59;;;;;;;8.38;2.83;;;;;;;11.91;64.59;100070.31;6214839;23;20043;-87
2024/04/10 00:38:29;;;;;;;18.13;3.08;;;;;;;11.93;64.69;100068.47;6214086;23;20031;-87
2024/04/10 00:40:58;;;;;;;9.30;3.47;;;;;;;11.95;64.93;100071.84;6239109;23;20020;-88
2024/04/10 00:43:24;;;;;;;14.98;3.75;;;;;;;11.93;64.87;100071.94;6189620;23;20021;-87
2024/04/10 00:45:55;;;;;;;13.80;3.50;;;;;;;11.93;64.65;100079.03;6189556;23;20020;-86
2024/04/10 00:48:21;;;;;;;14.50;3.80;;;;;;;11.90;64.82;100074.78;6239886;23;20021;-85
2024/04/10 00:50:47;;;;;;;10.23;3.15;;;;;;;11.90;64.90;100084.47;6213981;23;20032;-85
2024/04/10 00:53:13;;;;;;;10.23;3.35;;;;;;;11.88;64.68;100076.63;6188879;23;20020;-85
2024/04/10 00:55:39;;;;;;;11.75;2.78;;;;;;;11.86;65.00;100071.44;6239683;23;20527;-85
2024/04/10 00:58:07;;;;;;;10.07;2.83;;;;;;;11.88;64.90;100070.53;6213715;23;20024;-85
2024/04/10 01:00:34;;;;;;;11.35;3.50;;;;;;;11.85;64.70;100088.22;6213817;23;20029;-85
2024/04/10 01:03:00;;;;;;;10.57;3.10;;;;;;;11.86;65.09;100082.00;6189611;23;20017;-86
2024/04/10 01:05:25;;;;;;;8.30;2.80;;;;;;;11.85;65.00;100095.28;6188974;23;20456;-87
2024/04/10 01:07:51;;;;;;;14.60;3.45;;;;;;;11.85;65.08;100106.69;6239071;23;20021;-86
2024/04/10 01:10:17;;;;;;;12.85;4.13;;;;;;;11.84;65.27;100102.34;6188114;23;20055;-86
2024/04/10 01:12:45;;;;;;;12.02;3.03;;;;;;;11.83;65.19;100116.47;6239254;23;20044;-86
2024/04/10 01:15:11;;;;;;;15.25;3.22;;;;;;;11.83;65.01;100113.84;6239341;23;20021;-87
2024/04/10 01:17:37;;;;;;;13.25;3.08;;;;;;;11.85;64.90;100119.88;6239130;23;20484;-85
2024/04/10 01:20:07;;;;;;;17.10;3.47;;;;;;;11.83;64.84;100121.75;6238336;23;20370;-86
2024/04/10 01:22:33;;;;;;;21.92;3.75;;;;;;;11.85;65.16;100125.13;6188479;23;20023;-87
2024/04/10 01:25:17;;;;;;;18.23;3.85;;;;;;;11.82;63.75;100127.94;6238671;23;20059;-85
2024/04/10 01:27:53;;;;;;;12.93;3.03;;;;;;;11.82;63.68;100125.31;6188485;23;20487;-86
2024/04/10 01:30:31;;;;;;;18.58;3.60;;;;;;;11.88;65.00;100139.09;6189525;23;20088;-85
2024/04/10 01:33:12;;;;;;;15.35;3.42;;;;;;;11.90;64.90;100143.34;6189352;23;20024;-86
2024/04/10 01:35:38;;;;;;;9.00;2.92;;;;;;;11.91;65.20;100141.56;6238473;23;20020;-87
2024/04/10 01:38:04;;;;;;;12.70;3.28;;;;;;;11.92;65.28;100165.22;6188269;23;20024;-88
2024/04/10 01:40:31;;;;;;;15.32;3.42;;;;;;;11.92;65.11;100151.19;6213077;23;20098;-86
2024/04/10 01:42:56;;;;;;;11.05;2.85;;;;;;;11.94;65.28;100162.50;6213403;23;20396;-86
2024/04/10 01:45:22;;;;;;;13.30;3.08;;;;;;;11.95;65.50;100167.69;6188446;23;20024;-86
2024/04/10 01:47:48;;;;;;;16.50;4.10;;;;;;;11.95;65.60;100169.47;6213303;23;20489;-87
2024/04/10 01:50:13;;;;;;;13.25;3.08;;;;;;;11.96;65.40;100163.28;6238442;23;20380;-87
2024/04/10 01:52:39;;;;;;;13.18;3.33;;;;;;;11.98;65.85;100171.94;6238612;23;20017;-85
2024/04/10 01:55:05;;;;;;;11.40;3.22;;;;;;;12.00;65.82;100170.03;6238589;23;20036;-85
2024/04/10 01:57:30;;;;;;;17.20;3.85;;;;;;;12.01;65.61;100178.81;6213982;23;20025;-86
2024/04/10 01:59:56;;;;;;;16.10;3.60;;;;;;;12.02;65.49;100181.38;6238536;23;20538;-85
2024/04/10 02:02:22;;;;;;;11.98;3.30;;;;;;;12.02;65.62;100186.66;6189073;23;20020;-86
2024/04/10 02:04:47;;;;;;;8.93;2.88;;;;;;;12.02;65.61;100196.34;6214016;23;20028;-86
2024/04/10 02:07:13;;;;;;;13.02;3.20;;;;;;;12.03;65.42;100196.25;6189285;23;20020;-85
2024/04/10 02:09:39;;;;;;;10.80;2.97;;;;;;;12.02;65.33;100193.72;6188935;23;20021;-87
2024/04/10 02:12:05;;;;;;;13.98;3.72;;;;;;;11.99;65.20;100203.50;6214161;23;20016;-86
2024/04/10 02:14:31;;;;;;;7.97;3.08;;;;;;;11.98;65.25;100196.53;6188949;23;20024;-85
2024/04/10 02:16:57;;;;;;;9.65;2.97;;;;;;;11.97;65.45;100199.25;6189010;23;20548;-86
2024/04/10 02:19:23;;;;;;;8.90;2.88;;;;;;;11.95;65.14;100204.63;6188992;23;20031;-87
2024/04/10 02:21:48;;;;;;;7.57;2.90;;;;;;;11.95;65.47;100209.03;6188622;23;20349;-88
2024/04/10 02:24:14;;;;;;;20.23;3.70;;;;;;;11.95;65.42;100212.53;6239204;23;20020;-87
2024/04/10 02:26:40;;;;;;;9.98;3.58;;;;;;;11.92;65.39;100217.13;6188782;23;20025;-87
2024/04/10 02:29:09;;;;;;;15.38;3.53;;;;;;;11.91;65.50;100218.06;6238062;23;20025;-85
2024/04/10 02:31:35;;;;;;;8.32;3.08;;;;;;;11.89;65.52;100225.22;6212384;23;20021;-85
2024/04/10 02:34:01;;;;;;;6.95;2.72;;;;;;;11.86;65.60;100227.06;6188101;23;20024;-87
2024/04/10 02:36:27;;;;;;;11.90;3.17;;;;;;;11.85;65.44;100233.28;6188525;23;20027;-85
2024/04/10 03:26:08;;;;;;;7.35;2.47;;;;;;;11.17;66.66;100305.38;6214326;23;20523;-85
2024/04/10 03:28:33;;;;;;;5.35;2.42;;;;;;;11.19;67.10;100314.09;6212697;23;20027;-87
2024/04/10 03:31:00;;;;;;;6.28;2.00;;;;;;;11.15;67.20;100320.44;6161905;23;20020;-87
2024/04/10 03:33:26;;;;;;;12.63;2.85;;;;;;;11.11;67.52;100319.75;6187530;23;20028;-86
2024/04/10 03:35:53;;;;;;;5.68;1.90;;;;;;;11.12;67.63;100326.72;6162622;23;20262;-87
2024/04/10 03:38:19;;;;;;;5.40;1.90;;;;;;;11.11;67.68;100332.91;6187528;23;20021;-87
2024/04/10 03:40:46;;;;;;;4.97;2.00;;;;;;;11.11;67.97;100334.69;6163437;23;20024;-87
2024/04/10 03:43:12;;;;;;;12.02;2.90;;;;;;;11.11;67.84;100335.56;6162356;23;20461;-85
2024/04/10 03:45:38;;;;;;;6.57;2.50;;;;;;;11.12;68.11;100334.63;6212073;23;20031;-85
2024/04/10 03:48:03;;;;;;;4.28;2.17;;;;;;;11.15;68.29;100344.16;6162248;23;20362;-85
2024/04/10 03:50:29;;;;;;;5.55;2.10;;;;;;;11.15;68.11;100341.50;6161898;23;20020;-85
2024/04/10 03:52:55;;;;;;;5.20;2.25;;;;;;;11.16;68.18;100353.75;6162338;23;20071;-85
2024/04/10 03:55:20;;;;;;;5.03;1.83;;;;;;;11.16;68.36;100348.47;6212015;23;20027;-85
2024/04/10 03:57:46;;;;;;;6.07;1.88;;;;;;;11.17;68.39;100358.09;6162909;23;20094;-85
2024/04/10 04:00:12;;;;;;;8.05;1.98;;;;;;;11.15;68.44;100368.72;6186824;23;20031;-85
2024/04/10 04:02:38;;;;;;;7.57;2.40;;;;;;;11.16;68.52;100374.81;6186642;23;20043;-86
2024/04/10 04:05:05;;;;;;;4.45;2.10;;;;;;;11.17;68.56;100376.53;6197884;23;20453;-85
2024/04/10 04:10:11;;;;;;;5.68;2.40;;;;;;;11.21;68.29;100389.50;5549258;25;20754;-85
2024/04/10 04:12:37;;;;;;;4.28;2.55;;;;;;;11.16;68.44;100390.63;5543564;25;20016;-85
2024/04/10 04:15:07;;;;;;;5.20;2.17;;;;;;;11.14;68.52;100398.63;5511289;25;20020;-86
2024/04/10 04:17:34;;;;;;;5.45;1.80;;;;;;;11.12;68.69;100410.16;5511412;25;20013;-84
2024/04/10 04:20:02;;;;;;;6.82;2.17;;;;;;;11.11;68.78;100414.59;5509466;25;20016;-84
2024/04/10 04:22:29;;;;;;;7.63;2.63;;;;;;;11.10;68.86;100423.41;5543498;25;20013;-85
2024/04/10 04:24:56;;;;;;;6.13;1.90;;;;;;;11.13;69.32;100427.66;5541749;25;20463;-84
2024/04/10 04:27:25;;;;;;;4.28;1.65;;;;;;;11.14;69.32;100437.31;5541448;25;20332;-86
2024/04/10 04:29:52;;;;;;;5.15;2.03;;;;;;;11.14;69.24;100437.31;5510327;25;20016;-86
2024/04/10 04:32:18;;;;;;;5.97;2.00;;;;;;;11.14;69.13;100445.22;5511417;25;20001;-87
2024/04/10 04:34:45;;;;;;;7.13;1.85;;;;;;;11.11;69.17;100447.97;5510817;25;20073;-87
2024/04/10 04:37:12;;;;;;;4.45;1.92;;;;;;;11.11;68.82;100459.38;5543263;25;20001;-84
2024/04/10 04:39:39;;;;;;;5.93;2.00;;;;;;;11.07;69.09;100471.84;5510016;25;20016;-85
2024/04/10 04:42:05;;;;;;;8.15;2.30;;;;;;;11.07;69.44;100486.81;5543362;25;20467;-85
2024/04/10 04:44:32;;;;;;;4.13;1.95;;;;;;;11.03;69.53;100483.44;5511349;25;20363;-85
2024/04/10 04:46:59;;;;;;;8.40;2.25;;;;;;;11.01;69.69;100482.69;5543341;25;20105;-84
2024/04/10 04:49:26;;;;;;;5.30;2.10;;;;;;;11.01;69.98;100484.44;5510507;25;20010;-86
2024/04/10 04:51:53;;;;;;;5.35;1.92;;;;;;;11.01;70.19;100489.72;5514256;25;20367;-86
2024/04/10 04:54:20;;;;;;;8.18;2.63;;;;;;;11.01;70.46;100495.84;5513086;25;20001;-86
2024/04/10 04:56:47;;;;;;;9.20;2.40;;;;;;;11.02;70.14;100500.19;5514622;25;20050;-86
2024/04/10 04:59:16;;;;;;;3.97;2.13;;;;;;;11.04;70.28;100508.88;5507418;25;20029;-86
2024/04/10 05:01:42;;;;;;;6.15;2.30;;;;;;;11.05;70.40;100509.72;5540733;25;20530;-86
2024/04/10 05:06:55;;;;;;;6.35;2.58;;;;;;;11.09;70.38;100524.47;5546964;25;20072;-87
2024/04/10 05:09:22;;;;;;;13.05;3.13;;;;;;;11.10;70.46;100527.97;5546518;25;19997;-87
2024/04/10 05:11:48;;;;;;;6.80;2.60;;;;;;;11.12;70.43;100526.09;5513274;25;20338;-86
2024/04/10 05:14:15;;;;;;;10.85;3.20;;;;;;;11.13;70.48;100533.06;5513620;25;20005;-86
2024/04/10 05:16:42;;;;;;;4.70;2.55;;;;;;;11.16;70.39;100541.69;5513415;25;20005;-86
2024/04/10 05:19:09;;;;;;;10.90;2.75;;;;;;;11.17;70.31;100545.16;5543825;25;20001;-87
2024/04/10 05:21:37;;;;;;;8.55;2.60;;;;;;;11.17;70.34;100563.63;5529279;25;20045;-86
2024/04/10 05:24:04;;;;;;;11.40;3.17;;;;;;;11.16;70.34;100554.00;5498700;26;20001;-88
2024/04/10 05:26:31;;;;;;;9.85;3.17;;;;;;;11.14;70.18;100561.97;5497998;25;20325;-87
2024/04/10 05:28:58;;;;;;;8.52;3.05;;;;;;;11.13;70.43;100572.59;5497544;25;20009;-88
2024/04/10 05:31:24;;;;;;;10.00;3.33;;;;;;;11.11;70.41;100569.19;5529455;25;20002;-86
2024/04/10 05:33:52;;;;;;;11.30;3.50;;;;;;;11.10;70.55;100580.66;5497432;26;20515;-87
2024/04/10 05:36:19;;;;;;;11.45;3.25;;;;;;;11.12;70.85;100584.06;5529752;25;20002;-86
2024/04/10 05:38:46;;;;;;;9.98;3.30;;;;;;;11.12;71.00;100584.94;5496755;26;20396;-86
2024/04/10 05:41:13;;;;;;;8.02;3.38;;;;;;;11.16;70.99;100601.44;5496804;25;20081;-86
2024/04/10 05:43:43;;;;;;;8.63;3.33;;;;;;;11.18;71.18;100597.81;5497592;26;19998;-86
2024/04/10 05:46:09;;;;;;;8.27;3.20;;;;;;;11.24;70.95;100609.00;5496340;26;20002;-86
2024/04/10 05:48:36;;;;;;;12.18;3.40;;;;;;;11.25;70.83;100608.91;5527977;25;19997;-86
2024/04/10 05:51:04;;;;;;;8.73;3.22;;;;;;;11.27;71.00;100608.84;5527066;25;19998;-86
2024/04/10 05:53:33;;;;;;;7.43;3.88;;;;;;;11.29;71.46;100617.56;5526371;25;20001;-86
2024/04/10 05:56:04;;;;;;;13.55;3.53;;;;;;;11.29;71.41;100626.31;5496523;25;20364;-86
2024/04/10 05:58:35;;;;;;;13.00;3.25;;;;;;;11.32;71.14;100628.81;5496170;26;19997;-86
2024/04/10 06:01:07;;;;;;;10.77;3.92;;;;;;;11.34;71.32;100637.47;5496317;26;20008;-86
2024/04/10 06:03:34;;;;;;;11.43;3.60;;;;;;;11.40;71.53;100635.50;5497181;26;20002;-86
2024/04/10 06:06:09;;;;;;;11.20;3.60;;;;;;;11.38;71.38;100645.25;5497731;26;20002;-86
2024/04/10 06:08:36;;;;;;;14.23;4.25;;;;;;;11.43;71.42;100646.75;5496868;25;20027;-86
2024/04/10 06:11:03;;;;;;;14.38;4.15;;;;;;;11.47;71.45;100652.75;5496308;26;20020;-86
2024/04/10 06:13:30;;;;;;;13.00;4.07;;;;;;;11.49;71.59;100652.69;5528371;25;20508;-86
2024/04/10 06:16:04;;;;;;;13.20;3.78;;;;;;;11.52;71.42;100665.72;5497414;26;20010;-86
2024/04/10 06:18:32;;;;;;;9.43;3.75;;;;;;;11.58;71.39;100660.16;5496022;26;20385;-87
2024/04/10 06:21:03;;;;;;;10.02;4.22;;;;;;;11.62;71.06;100660.88;5497235;25;20009;-87
2024/04/10 06:23:31;;;;;;;13.43;4.40;;;;;;;11.65;71.16;100672.13;5460796;26;20021;-86
2024/04/10 06:25:59;;;;;;;13.65;4.22;;;;;;;11.67;71.16;100674.69;5492517;26;20073;-86
2024/04/10 06:28:27;;;;;;;12.10;4.07;;;;;;;11.68;70.74;100684.31;5490023;26;20013;-87
2024/04/10 06:30:59;;;;;;;11.65;4.57;;;;;;;11.67;70.87;100693.16;5490362;26;20006;-87
2024/04/10 06:33:29;;;;;;;10.15;4.47;;;;;;;11.68;71.04;100692.22;5492032;26;19998;-87
2024/04/10 06:36:04;;;;;;;11.77;4.28;;;;;;;11.70;70.80;100700.94;5490214;26;20002;-87
2024/04/10 06:38:31;;;;;;;14.02;3.95;;;;;;;11.75;71.31;100695.44;5490275;26;20491;-87
2024/04/10 06:41:08;;;;;;;8.45;4.07;;;;;;;11.78;71.64;100701.41;5460496;26;20445;-87
2024/04/10 06:43:38;;;;;;;8.75;4.13;;;;;;;11.86;71.44;100711.63;5460098;26;20002;-87
2024/04/10 06:46:07;;;;;;;14.13;4.45;;;;;;;11.89;71.48;100705.34;5460162;26;20009;-87
2024/04/10 06:48:35;;;;;;;11.65;4.13;;;;;;;11.95;71.69;100715.59;5490025;26;20006;-87
2024/04/10 06:51:05;;;;;;;14.15;4.40;;;;;;;12.02;71.92;100717.03;5459302;26;20002;-87
2024/04/10 06:53:32;;;;;;;13.00;4.78;;;;;;;12.07;72.05;100715.03;5490659;26;20105;-87
2024/04/10 06:56:04;;;;;;;21.25;5.00;;;;;;;12.12;71.56;100715.69;5460275;26;20013;-87
2024/04/10 06:58:36;;;;;;;16.63;5.60;;;;;;;12.21;71.55;100718.81;5459822;26;20009;-86
2024/04/10 07:01:06;;;;;;;12.80;4.68;;;;;;;12.27;71.51;100729.06;5459452;26;20026;-86
2024/04/10 07:03:36;;;;;;;9.85;4.32;;;;;;;12.34;71.33;100738.38;5459801;26;20051;-86
2024/04/10 07:06:03;;;;;;;11.70;4.70;;;;;;;12.42;71.39;100735.41;5460132;26;20009;-86
2024/04/10 07:08:41;;;;;;;14.48;5.00;;;;;;;12.50;71.17;100748.22;5489696;26;20500;-86
2024/04/10 07:11:20;;;;;;;13.25;4.93;;;;;;;12.57;71.12;100738.19;5489621;26;19998;-87
2024/04/10 07:13:53;;;;;;;11.23;4.28;;;;;;;12.64;70.97;100745.72;5460870;26;20036;-87
2024/04/10 07:16:26;;;;;;;17.52;5.20;;;;;;;12.70;70.74;100756.91;5490311;26;20006;-86
2024/04/10 07:18:58;;;;;;;13.10;4.50;;;;;;;12.78;70.62;100757.41;5491736;26;20482;-87
2024/04/10 07:21:28;;;;;;;11.90;4.63;;;;;;;12.84;70.67;100751.81;5489830;26;20003;-86
2024/04/10 07:23:55;;;;;;;14.10;5.00;;;;;;;12.89;70.46;100754.22;5491835;26;20025;-87
2024/04/10 07:26:27;;;;;;;17.25;5.35;;;;;;;12.93;70.06;100766.34;5460260;26;20078;-87
2024/04/10 07:28:57;;;;;;;12.68;4.93;;;;;;;13.00;70.23;100772.16;5489203;26;20014;-86
2024/04/10 07:31:31;;;;;;;15.27;5.20;;;;;;;13.04;69.54;100773.72;5490725;26;20010;-87
2024/04/10 07:34:14;;;;;;;12.80;4.90;;;;;;;13.12;69.70;100774.19;5489505;26;20380;-87
2024/04/10 07:37:00;;;;;;;13.13;5.03;;;;;;;13.21;69.56;100782.56;5463391;26;20016;-86
2024/04/10 07:39:27;;;;;;;21.67;6.43;;;;;;;13.28;69.50;100773.41;5459678;26;20071;-86
2024/04/10 07:41:54;;;;;;;19.05;5.88;;;;;;;13.32;69.32;100782.03;5490772;26;20467;-87
2024/04/10 07:44:21;;;;;;;17.00;4.82;;;;;;;13.35;69.34;100781.88;5458378;26;19998;-86
2024/04/10 07:46:48;;;;;;;14.07;4.50;;;;;;;13.39;69.44;100778.97;5458853;26;20006;-87
2024/04/10 07:49:17;;;;;;;19.45;5.40;;;;;;;13.45;69.69;100787.53;5489200;26;20008;-87
2024/04/10 07:51:45;;;;;;;17.73;5.78;;;;;;;13.51;69.30;100784.59;5459252;26;20082;-87
2024/04/10 07:54:11;;;;;;;16.00;5.70;;;;;;;13.58;69.28;100798.34;5490726;26;20364;-87
2024/04/10 07:56:40;;;;;;;17.55;5.30;;;;;;;13.65;69.14;100799.72;5488973;26;20078;-87
2024/04/10 07:59:07;;;;;;;17.23;5.95;;;;;;;13.74;69.44;100803.66;5458020;26;20052;-87
2024/04/10 08:01:34;;;;;;;18.90;5.13;;;;;;;13.81;68.96;100808.56;5458944;26;20021;-87
2024/04/10 08:04:06;;;;;;;12.93;5.18;;;;;;;13.87;67.95;100809.16;5458424;26;20051;-87
2024/04/10 08:06:36;;;;;;;19.25;5.57;;;;;;;13.92;67.80;100817.72;5458917;26;20456;-87
2024/04/10 08:09:03;;;;;;;13.23;4.75;;;;;;;13.96;67.65;100818.38;5488281;26;20006;-87
2024/04/10 08:11:33;;;;;;;10.95;4.20;;;;;;;13.99;67.70;100821.75;5459135;26;20002;-87
2024/04/10 08:14:00;;;;;;;13.77;4.75;;;;;;;13.96;66.22;100826.31;5459359;26;20082;-87
2024/04/10 08:16:28;;;;;;;16.20;5.78;;;;;;;13.94;66.12;100832.56;5458803;26;20582;-86
2024/04/10 08:18:56;;;;;;;17.15;4.68;;;;;;;13.91;66.31;100834.53;5488243;26;20017;-87
2024/04/10 08:21:23;;;;;;;13.75;5.65;;;;;;;13.87;66.25;100838.28;5458569;26;20002;-87
2024/04/10 08:23:50;;;;;;;15.15;5.07;;;;;;;13.81;66.24;100840.31;5488954;26;20002;-88
2024/04/10 08:26:21;;;;;;;14.13;4.88;;;;;;;13.81;66.13;100844.75;5458739;26;20010;-87
2024/04/10 08:28:52;;;;;;;13.15;5.07;;;;;;;13.83;67.11;100852.63;5488521;26;19999;-87
2024/04/10 08:31:23;;;;;;;12.07;5.00;;;;;;;13.88;67.44;100854.09;5458895;26;19998;-87
2024/04/10 08:33:52;;;;;;;10.90;4.13;;;;;;;13.97;67.27;100854.53;5458849;26;20006;-87
2024/04/10 08:36:21;;;;;;;12.38;4.50;;;;;;;14.04;66.81;100859.41;5457904;26;20012;-88
2024/04/10 08:38:48;;;;;;;19.58;4.72;;;;;;;14.13;67.23;100865.16;5487912;26;20002;-87
2024/04/10 08:41:20;;;;;;;10.35;4.15;;;;;;;14.17;66.20;100858.75;5458114;26;20013;-87
2024/04/10 08:43:48;;;;;;;10.75;4.53;;;;;;;14.28;66.40;100868.75;5488427;26;20006;-87
2024/04/10 08:46:18;;;;;;;11.73;3.58;;;;;;;14.33;65.55;100869.34;5458149;26;20003;-86
2024/04/10 08:48:46;;;;;;;16.25;3.72;;;;;;;14.38;65.22;100877.88;5458150;26;20002;-86
2024/04/10 08:51:15;;;;;;;15.45;4.13;;;;;;;14.42;64.89;100878.56;5457876;26;20018;-87
2024/04/10 08:53:48;;;;;;;14.80;4.82;;;;;;;14.42;64.71;100867.97;5487250;26;20006;-87
2024/04/10 08:56:18;;;;;;;15.32;5.00;;;;;;;14.50;66.24;100872.84;5490829;26;20063;-87
2024/04/10 08:58:47;;;;;;;19.30;5.78;;;;;;;14.56;64.64;100875.16;5461958;26;19998;-86
2024/04/10 09:01:33;;;;;;;13.57;4.60;;;;;;;14.61;63.62;100878.41;5460394;26;20082;-87
2024/04/10 09:04:08;;;;;;;12.18;4.50;;;;;;;14.69;63.26;100876.16;5491780;26;19998;-87
2024/04/10 09:06:37;;;;;;;8.75;4.03;;;;;;;14.75;64.12;100885.56;5461249;26;20013;-87
2024/04/10 09:09:07;;;;;;;12.70;4.22;;;;;;;14.75;63.05;100885.56;5461700;26;20013;-87
2024/04/10 09:11:37;;;;;;;14.18;5.25;;;;;;;14.74;62.72;100886.53;5492389;26;20030;-87
2024/04/10 09:14:08;;;;;;;11.43;4.55;;;;;;;14.71;62.33;100887.56;5491854;26;20013;-87
2024/04/10 09:16:40;;;;;;;12.88;4.30;;;;;;;14.73;61.60;100890.13;5461216;26;20540;-87
2024/04/10 09:19:15;;;;;;;10.48;4.38;;;;;;;14.79;62.94;100896.88;5491469;26;20064;-87
2024/04/10 09:21:58;;;;;;;11.20;3.80;;;;;;;14.91;63.06;100896.19;5491267;26;20009;-87
2024/04/10 09:24:26;;;;;;;10.90;2.67;;;;;;;15.12;63.81;100903.84;5491747;26;20104;-87
2024/04/10 09:26:57;;;;;;;9.50;2.95;;;;;;;15.24;61.54;100897.84;5492515;26;20017;-87
2024/04/10 09:29:32;;;;;;;11.23;3.45;;;;;;;15.35;62.53;100899.88;5461934;26;20010;-87
2024/04/10 09:32:08;;;;;;;14.02;4.22;;;;;;;15.38;60.67;100909.44;5491499;26;20010;-87
2024/04/10 09:34:35;;;;;;;18.27;4.22;;;;;;;15.41;61.95;100898.66;5460890;26;20524;-87
2024/04/10 09:37:09;;;;;;;10.90;4.18;;;;;;;15.41;61.48;100911.94;5460752;26;20018;-87
2024/04/10 09:39:40;;;;;;;12.05;4.03;;;;;;;15.40;61.69;100912.00;5459709;26;20385;-87
2024/04/10 09:42:31;;;;;;;10.50;4.20;;;;;;;15.35;61.24;100910.47;5491540;26;20460;-86
2024/04/10 09:45:12;;;;;;;11.75;3.78;;;;;;;15.45;61.93;100918.75;5491126;26;20017;-87
2024/04/10 09:47:39;;;;;;;8.15;3.72;;;;;;;15.57;63.79;100914.53;5492669;26;20042;-87
2024/04/10 09:50:17;;;;;;;9.98;3.75;;;;;;;15.67;60.54;100917.47;5490294;26;20048;-87
2024/04/10 09:52:45;;;;;;;8.32;3.50;;;;;;;15.83;62.61;100922.72;5460718;26;20010;-87
2024/04/10 09:55:23;;;;;;;;;;;;;;;;;;;;;
2024/04/10 09:58:02;;;;;;;9.63;3.22;;;;;;;15.99;61.32;100916.47;5492866;26;19998;-87
2024/04/10 10:00:35;;;;;;;8.93;2.97;;;;;;;16.04;60.86;100917.06;5490586;26;20013;-87
2024/04/10 10:03:06;;;;;;;12.30;3.78;;;;;;;16.08;60.78;100915.06;5460775;26;19998;-87
2024/04/10 10:05:34;;;;;;;8.68;3.03;;;;;;;16.10;60.34;100916.69;5492540;26;20516;-87
2024/04/10 10:08:06;;;;;;;12.80;2.97;;;;;;;16.10;60.20;100915.81;5491675;26;20074;-87
2024/04/10 10:10:49;;;;;;;7.47;2.90;;;;;;;16.06;56.94;100924.94;5492129;26;20002;-87
2024/04/10 10:13:39;;;;;;;;;;;;;;;16.03;51.69;100933.94;5492168;26;20332;-87
2024/04/10 10:16:13;;;;;;;8.90;2.67;;;;;;;16.02;57.91;100938.41;5492347;26;20377;-87
2024/04/10 10:18:52;;;;;;;12.10;3.53;;;;;;;15.93;58.08;100944.25;5491926;26;20458;-86
2024/04/10 10:21:27;;;;;;;8.65;3.10;;;;;;;15.81;56.46;100955.63;5461373;26;19994;-87
2024/04/10 10:24:08;;;;;;;10.73;2.97;;;;;;;15.62;53.66;100952.25;5493472;26;19998;-87
2024/04/10 10:26:36;;;;;;;11.13;2.95;;;;;;;15.57;56.78;100948.16;5491157;26;20002;-86
2024/04/10 10:29:04;;;;;;;9.45;3.05;;;;;;;15.40;56.48;100960.59;5460880;26;20083;-87
2024/04/10 10:31:36;;;;;;;10.20;3.70;;;;;;;15.28;57.86;100956.88;5490371;26;20002;-86
2024/04/10 10:34:14;;;;;;;10.07;3.20;;;;;;;15.17;58.80;100959.31;5460725;26;20020;-86
2024/04/10 10:36:41;;;;;;;9.68;3.10;;;;;;;15.10;58.97;100964.94;5459863;26;20006;-86
2024/04/10 10:39:15;;;;;;;8.25;3.42;;;;;;;15.09;60.08;100967.66;5461469;26;20022;-86
2024/04/10 10:41:42;;;;;;;10.77;3.47;;;;;;;15.07;58.89;100973.06;5492886;26;19998;-86
2024/04/10 10:44:09;;;;;;;10.60;3.13;;;;;;;15.09;58.52;100967.66;5461021;26;20026;-87
2024/04/10 10:46:36;;;;;;;7.38;2.90;;;;;;;15.04;58.29;100975.03;5461690;26;20401;-86
2024/04/10 10:49:03;;;;;;;10.10;3.40;;;;;;;14.99;58.24;100962.03;5459913;26;20531;-87
2024/04/10 10:51:33;;;;;;;12.07;3.55;;;;;;;14.91;58.37;100966.94;5490983;26;20017;-86
2024/04/10 10:54:00;;;;;;;8.10;3.35;;;;;;;14.88;59.13;100970.59;5491338;26;20400;-87
2024/04/10 10:56:30;;;;;;;10.57;3.38;;;;;;;14.83;59.01;100984.09;5489170;26;20030;-87
2024/04/10 10:59:08;;;;;;;12.38;3.55;;;;;;;14.76;57.91;100982.72;5460002;26;20536;-87
2024/04/10 11:01:42;;;;;;;10.05;3.72;;;;;;;14.79;58.89;100985.22;5460997;26;20336;-86
2024/04/10 11:04:16;;;;;;;9.27;3.75;;;;;;;14.73;58.31;100983.72;5490564;26;20010;-87
2024/04/10 11:06:43;;;;;;;14.23;3.65;;;;;;;14.78;60.17;100978.22;5459856;26;20013;-87
2024/04/10 11:09:14;;;;;;;8.63;3.75;;;;;;;14.79;60.26;100977.25;5489147;26;20010;-87
2024/04/10 11:11:42;;;;;;;13.30;3.90;;;;;;;14.88;60.70;100988.31;5490238;26;20002;-86
2024/04/10 11:14:13;;;;;;;13.80;4.28;;;;;;;14.93;58.07;100987.13;5490624;26;20002;-87
2024/04/10 11:16:40;;;;;;;9.35;3.55;;;;;;;15.06;59.57;100981.13;5490630;26;19998;-87
2024/04/10 11:19:11;;;;;;;10.48;3.78;;;;;;;15.17;60.56;100973.41;5489029;26;20467;-87
2024/04/10 11:21:42;;;;;;;11.02;3.67;;;;;;;15.32;60.85;100979.63;5461642;26;20010;-87
2024/04/10 11:24:23;;;;;;;12.63;3.72;;;;;;;15.62;64.19;100973.47;5489792;26;20030;-87
2024/04/10 11:27:05;;;;;;;12.10;4.03;;;;;;;16.13;61.88;100977.59;5491370;26;20009;-87
2024/04/10 11:29:54;;;;;;;;;;;;;;;;;;;;;
2024/04/10 11:32:51;;;;;;;13.50;4.10;;;;;;;17.08;58.88;100975.34;5491613;26;20030;-86
2024/04/10 11:35:32;;;;;;;10.80;3.47;;;;;;;17.36;57.06;100966.38;5489790;26;19998;-87
2024/04/10 11:38:43;;;;;;;5.97;2.88;;;;;;;17.71;59.21;100962.31;5319919;26;20033;-87
2024/04/10 11:41:28;;;;;;;;;;;;;;;;;;;;;
2024/04/10 11:44:25;;;;;;;8.50;3.50;;;;;;;18.44;53.73;100969.78;5486856;26;19998;-87
2024/04/10 11:46:55;;;;;;;8.18;3.08;;;;;;;18.61;54.49;100963.25;5490659;26;20015;-87
2024/04/10 11:49:49;;;;;;;8.60;3.58;;;;;;;18.62;50.40;100976.47;5487531;26;20041;-88
2024/04/10 11:57:05;;;;;;;;;;;;;;;;;;;;;
2024/04/10 12:00:14;;;;;;;10.70;3.40;;;;;;;17.86;50.27;100979.03;5486811;26;20002;-87
2024/04/10 12:03:15;;;;;;;8.05;3.08;;;;;;;17.49;51.41;100984.22;5344749;26;20426;-87
2024/04/10 12:13:23;;;;;;;;;;;;;;;;;;;;;
2024/04/10 12:16:24;;;;;;;8.43;2.72;;;;;;;16.39;51.32;101001.72;5380313;26;20005;-87
2024/04/10 12:19:18;;;;;;;;;;;;;;;;;;;;;
2024/04/10 12:22:04;;;;;;;9.05;2.63;;;;;;;16.19;53.99;100994.09;5490099;26;20017;-86
2024/04/10 12:25:09;;;;;;;6.95;2.28;;;;;;;16.23;53.02;100995.63;5463584;26;20443;-87
2024/04/10 12:28:09;;;;;;;7.53;2.35;;;;;;;16.37;52.54;101011.56;5490231;26;20476;-87
2024/04/10 12:31:28;;;;;;;;;;;;;;;;;;;;;
2024/04/10 12:34:33;;;;;;;5.93;2.10;;;;;;;16.84;51.31;101010.50;5493492;26;20698;-86
2024/04/10 12:40:37;;;;;;;7.93;2.53;;;;;;;17.08;51.00;101025.88;5489372;26;20009;-87
2024/04/10 12:43:11;;;;;;;5.82;2.22;;;;;;;17.06;51.69;101026.84;5465511;26;20065;-87
2024/04/10 12:45:44;;;;;;;7.45;2.08;;;;;;;17.03;52.87;101023.47;5491918;26;20034;-88
2024/04/10 12:48:12;;;;;;;8.32;2.15;;;;;;;17.01;51.30;101034.22;5492577;26;20515;-87
2024/04/10 12:51:30;;;;;;;7.40;2.50;;;;;;;17.03;50.15;101026.13;5323312;26;20545;-87
2024/04/10 12:54:22;;;;;;;7.15;2.20;;;;;;;17.16;48.05;101027.09;5388064;26;20051;-87
2024/04/10 12:57:14;;;;;;;10.98;2.58;;;;;;;17.30;50.79;101020.88;5458516;26;20340;-87